sensor_id;sensor_type;location;lat;lon;timestamp;P1;durP1;ratioP1;P2;durP2;ratioP2
31724;SDS011;18306;40.960;14.836;2024-02-23T00:02:14;15.50;;;9.13;;
31724;SDS011;18306;40.960;14.836;2024-02-23T00:04:41;13.55;;;9.82;;
31724;SDS011;18306;40.960;14.836;2024-02-23T00:07:09;14.95;;;9.70;;
31724;SDS011;18306;40.960;14.836;2024-02-23T00:09:37;11.38;;;9.30;;
31724;SDS011;18306;40.960;14.836;2024-02-23T00:12:04;13.57;;;9.30;;
31724;SDS011;18306;40.960;14.836;2024-02-23T00:14:31;14.05;;;8.65;;
31724;SDS011;18306;40.960;14.836;2024-02-23T00:16:58;15.05;;;8.35;;
31724;SDS011;18306;40.960;14.836;2024-02-23T00:19:27;13.43;;;9.05;;
31724;SDS011;18306;40.960;14.836;2024-02-23T00:21:56;11.60;;;8.30;;
31724;SDS011;18306;40.960;14.836;2024-02-23T00:24:25;10.77;;;8.75;;
31724;SDS011;18306;40.960;14.836;2024-02-23T00:26:52;11.60;;;8.50;;
31724;SDS011;18306;40.960;14.836;2024-02-23T00:29:19;13.60;;;8.48;;
31724;SDS011;18306;40.960;14.836;2024-02-23T00:31:47;10.55;;;8.85;;
31724;SDS011;18306;40.960;14.836;2024-02-23T00:34:15;12.85;;;9.00;;
31724;SDS011;18306;40.960;14.836;2024-02-23T00:36:42;12.80;;;7.80;;
31724;SDS011;18306;40.960;14.836;2024-02-23T00:39:12;9.73;;;7.25;;
31724;SDS011;18306;40.960;14.836;2024-02-23T00:41:39;8.85;;;7.10;;
31724;SDS011;18306;40.960;14.836;2024-02-23T00:44:06;12.10;;;7.65;;
31724;SDS011;18306;40.960;14.836;2024-02-23T00:46:34;12.43;;;7.72;;
31724;SDS011;18306;40.960;14.836;2024-02-23T00:49:10;14.43;;;7.32;;
31724;SDS011;18306;40.960;14.836;2024-02-23T00:51:37;13.13;;;7.22;;
31724;SDS011;18306;40.960;14.836;2024-02-23T00:54:04;15.52;;;7.45;;
31724;SDS011;18306;40.960;14.836;2024-02-23T00:56:32;8.90;;;6.90;;
31724;SDS011;18306;40.960;14.836;2024-02-23T00:58:59;12.45;;;7.43;;
31724;SDS011;18306;40.960;14.836;2024-02-23T01:01:26;9.73;;;7.82;;
31724;SDS011;18306;40.960;14.836;2024-02-23T01:03:54;11.88;;;7.22;;
31724;SDS011;18306;40.960;14.836;2024-02-23T01:06:21;10.68;;;7.40;;
31724;SDS011;18306;40.960;14.836;2024-02-23T01:08:49;11.07;;;7.30;;
31724;SDS011;18306;40.960;14.836;2024-02-23T01:11:17;10.98;;;7.80;;
31724;SDS011;18306;40.960;14.836;2024-02-23T01:13:44;10.18;;;7.13;;
31724;SDS011;18306;40.960;14.836;2024-02-23T01:16:11;11.73;;;7.20;;
31724;SDS011;18306;40.960;14.836;2024-02-23T01:18:38;9.18;;;6.95;;
31724;SDS011;18306;40.960;14.836;2024-02-23T01:21:05;10.80;;;7.30;;
31724;SDS011;18306;40.960;14.836;2024-02-23T01:23:32;13.75;;;9.32;;
31724;SDS011;18306;40.960;14.836;2024-02-23T01:25:59;16.33;;;9.77;;
31724;SDS011;18306;40.960;14.836;2024-02-23T01:28:28;13.55;;;10.35;;
31724;SDS011;18306;40.960;14.836;2024-02-23T01:30:55;15.70;;;10.77;;
31724;SDS011;18306;40.960;14.836;2024-02-23T01:33:22;16.52;;;9.80;;
31724;SDS011;18306;40.960;14.836;2024-02-23T01:35:50;10.45;;;8.57;;
31724;SDS011;18306;40.960;14.836;2024-02-23T01:38:17;14.43;;;8.25;;
31724;SDS011;18306;40.960;14.836;2024-02-23T01:40:47;8.63;;;6.80;;
31724;SDS011;18306;40.960;14.836;2024-02-23T01:43:14;10.35;;;7.65;;
31724;SDS011;18306;40.960;14.836;2024-02-23T01:45:41;11.93;;;8.65;;
31724;SDS011;18306;40.960;14.836;2024-02-23T01:48:08;14.20;;;8.57;;
31724;SDS011;18306;40.960;14.836;2024-02-23T01:50:35;14.18;;;8.27;;
31724;SDS011;18306;40.960;14.836;2024-02-23T01:53:03;13.13;;;7.75;;
31724;SDS011;18306;40.960;14.836;2024-02-23T01:55:30;12.88;;;7.45;;
31724;SDS011;18306;40.960;14.836;2024-02-23T01:57:59;11.75;;;8.10;;
31724;SDS011;18306;40.960;14.836;2024-02-23T02:00:27;10.55;;;8.15;;
31724;SDS011;18306;40.960;14.836;2024-02-23T02:02:55;13.90;;;8.60;;
31724;SDS011;18306;40.960;14.836;2024-02-23T02:05:23;12.25;;;8.27;;
31724;SDS011;18306;40.960;14.836;2024-02-23T02:07:50;12.60;;;8.57;;
31724;SDS011;18306;40.960;14.836;2024-02-23T02:10:20;12.10;;;8.98;;
31724;SDS011;18306;40.960;14.836;2024-02-23T02:12:48;12.93;;;10.45;;
31724;SDS011;18306;40.960;14.836;2024-02-23T02:15:16;15.77;;;9.60;;
31724;SDS011;18306;40.960;14.836;2024-02-23T02:17:43;14.27;;;9.25;;
31724;SDS011;18306;40.960;14.836;2024-02-23T02:20:11;11.35;;;9.15;;
31724;SDS011;18306;40.960;14.836;2024-02-23T02:22:42;12.40;;;9.13;;
31724;SDS011;18306;40.960;14.836;2024-02-23T02:25:09;14.15;;;9.35;;
31724;SDS011;18306;40.960;14.836;2024-02-23T02:27:36;14.98;;;9.32;;
31724;SDS011;18306;40.960;14.836;2024-02-23T02:30:03;14.88;;;9.68;;
31724;SDS011;18306;40.960;14.836;2024-02-23T02:32:31;15.05;;;9.88;;
31724;SDS011;18306;40.960;14.836;2024-02-23T02:34:58;14.15;;;10.02;;
31724;SDS011;18306;40.960;14.836;2024-02-23T02:37:25;14.63;;;10.80;;
31724;SDS011;18306;40.960;14.836;2024-02-23T02:39:52;15.40;;;10.82;;
31724;SDS011;18306;40.960;14.836;2024-02-23T02:42:19;14.70;;;11.00;;
31724;SDS011;18306;40.960;14.836;2024-02-23T02:44:46;16.40;;;12.63;;
31724;SDS011;18306;40.960;14.836;2024-02-23T02:47:13;18.30;;;12.55;;
31724;SDS011;18306;40.960;14.836;2024-02-23T02:49:40;13.35;;;10.02;;
31724;SDS011;18306;40.960;14.836;2024-02-23T02:52:07;16.88;;;10.90;;
31724;SDS011;18306;40.960;14.836;2024-02-23T02:54:34;14.98;;;10.30;;
31724;SDS011;18306;40.960;14.836;2024-02-23T02:57:01;17.20;;;10.98;;
31724;SDS011;18306;40.960;14.836;2024-02-23T02:59:28;15.98;;;12.77;;
31724;SDS011;18306;40.960;14.836;2024-02-23T03:01:55;14.73;;;11.35;;
31724;SDS011;18306;40.960;14.836;2024-02-23T03:04:23;12.98;;;10.20;;
31724;SDS011;18306;40.960;14.836;2024-02-23T03:06:50;13.98;;;10.00;;
31724;SDS011;18306;40.960;14.836;2024-02-23T03:09:17;17.25;;;12.07;;
31724;SDS011;18306;40.960;14.836;2024-02-23T03:11:44;16.50;;;11.10;;
31724;SDS011;18306;40.960;14.836;2024-02-23T03:14:11;14.38;;;10.48;;
31724;SDS011;18306;40.960;14.836;2024-02-23T03:16:38;14.15;;;10.27;;
31724;SDS011;18306;40.960;14.836;2024-02-23T03:19:05;13.05;;;11.02;;
31724;SDS011;18306;40.960;14.836;2024-02-23T03:21:34;15.02;;;11.70;;
31724;SDS011;18306;40.960;14.836;2024-02-23T03:24:01;13.68;;;10.07;;
31724;SDS011;18306;40.960;14.836;2024-02-23T03:26:29;14.65;;;11.32;;
31724;SDS011;18306;40.960;14.836;2024-02-23T03:28:56;14.50;;;11.90;;
31724;SDS011;18306;40.960;14.836;2024-02-23T03:31:23;15.27;;;12.15;;
31724;SDS011;18306;40.960;14.836;2024-02-23T03:33:50;15.07;;;11.43;;
31724;SDS011;18306;40.960;14.836;2024-02-23T03:36:17;13.63;;;10.88;;
31724;SDS011;18306;40.960;14.836;2024-02-23T03:38:44;16.85;;;11.68;;
31724;SDS011;18306;40.960;14.836;2024-02-23T03:41:11;13.73;;;11.98;;
31724;SDS011;18306;40.960;14.836;2024-02-23T03:43:38;16.35;;;13.07;;
31724;SDS011;18306;40.960;14.836;2024-02-23T03:46:05;15.98;;;11.35;;
31724;SDS011;18306;40.960;14.836;2024-02-23T03:48:32;16.05;;;11.70;;
31724;SDS011;18306;40.960;14.836;2024-02-23T03:51:00;15.80;;;11.88;;
31724;SDS011;18306;40.960;14.836;2024-02-23T03:53:29;16.85;;;11.63;;
31724;SDS011;18306;40.960;14.836;2024-02-23T03:55:59;13.60;;;11.73;;
31724;SDS011;18306;40.960;14.836;2024-02-23T03:58:26;16.33;;;11.90;;
31724;SDS011;18306;40.960;14.836;2024-02-23T04:00:53;14.68;;;11.18;;
31724;SDS011;18306;40.960;14.836;2024-02-23T04:03:20;16.02;;;12.07;;
31724;SDS011;18306;40.960;14.836;2024-02-23T04:05:47;18.10;;;11.43;;
31724;SDS011;18306;40.960;14.836;2024-02-23T04:08:14;16.42;;;11.52;;
31724;SDS011;18306;40.960;14.836;2024-02-23T04:10:41;20.98;;;11.50;;
31724;SDS011;18306;40.960;14.836;2024-02-23T04:13:08;17.45;;;11.45;;
31724;SDS011;18306;40.960;14.836;2024-02-23T04:15:36;16.02;;;11.38;;
31724;SDS011;18306;40.960;14.836;2024-02-23T04:18:03;17.08;;;13.38;;
31724;SDS011;18306;40.960;14.836;2024-02-23T04:20:31;15.27;;;11.45;;
31724;SDS011;18306;40.960;14.836;2024-02-23T04:22:59;16.58;;;11.07;;
31724;SDS011;18306;40.960;14.836;2024-02-23T04:25:26;16.45;;;12.30;;
31724;SDS011;18306;40.960;14.836;2024-02-23T04:27:53;17.83;;;11.75;;
31724;SDS011;18306;40.960;14.836;2024-02-23T04:30:20;18.17;;;11.73;;
31724;SDS011;18306;40.960;14.836;2024-02-23T04:32:47;12.48;;;11.13;;
31724;SDS011;18306;40.960;14.836;2024-02-23T04:35:14;13.82;;;11.18;;
31724;SDS011;18306;40.960;14.836;2024-02-23T04:37:44;15.57;;;10.80;;
31724;SDS011;18306;40.960;14.836;2024-02-23T04:40:12;16.00;;;11.05;;
31724;SDS011;18306;40.960;14.836;2024-02-23T04:42:38;14.85;;;10.70;;
31724;SDS011;18306;40.960;14.836;2024-02-23T04:45:06;17.45;;;10.63;;
31724;SDS011;18306;40.960;14.836;2024-02-23T04:47:33;15.60;;;10.85;;
31724;SDS011;18306;40.960;14.836;2024-02-23T04:50:00;15.60;;;10.82;;
31724;SDS011;18306;40.960;14.836;2024-02-23T04:52:29;14.23;;;10.25;;
31724;SDS011;18306;40.960;14.836;2024-02-23T04:54:56;16.63;;;10.25;;
31724;SDS011;18306;40.960;14.836;2024-02-23T04:57:23;14.93;;;10.18;;
31724;SDS011;18306;40.960;14.836;2024-02-23T04:59:50;17.08;;;10.10;;
31724;SDS011;18306;40.960;14.836;2024-02-23T05:02:17;15.02;;;10.23;;
31724;SDS011;18306;40.960;14.836;2024-02-23T05:04:44;15.45;;;10.10;;
31724;SDS011;18306;40.960;14.836;2024-02-23T05:07:12;16.95;;;10.55;;
31724;SDS011;18306;40.960;14.836;2024-02-23T05:09:39;16.05;;;10.52;;
31724;SDS011;18306;40.960;14.836;2024-02-23T05:12:07;14.48;;;9.60;;
31724;SDS011;18306;40.960;14.836;2024-02-23T05:14:35;13.52;;;11.52;;
31724;SDS011;18306;40.960;14.836;2024-02-23T05:17:02;17.40;;;11.85;;
31724;SDS011;18306;40.960;14.836;2024-02-23T05:19:29;15.18;;;10.85;;
31724;SDS011;18306;40.960;14.836;2024-02-23T05:21:56;14.38;;;11.48;;
31724;SDS011;18306;40.960;14.836;2024-02-23T05:24:23;15.65;;;11.75;;
31724;SDS011;18306;40.960;14.836;2024-02-23T05:26:51;15.73;;;11.85;;
31724;SDS011;18306;40.960;14.836;2024-02-23T05:29:18;18.20;;;11.27;;
31724;SDS011;18306;40.960;14.836;2024-02-23T05:31:48;15.98;;;10.90;;
31724;SDS011;18306;40.960;14.836;2024-02-23T05:34:17;12.90;;;10.75;;
31724;SDS011;18306;40.960;14.836;2024-02-23T05:36:45;18.75;;;12.25;;
31724;SDS011;18306;40.960;14.836;2024-02-23T05:39:13;15.05;;;11.25;;
31724;SDS011;18306;40.960;14.836;2024-02-23T05:41:43;19.27;;;12.80;;
31724;SDS011;18306;40.960;14.836;2024-02-23T05:44:10;18.17;;;12.35;;
31724;SDS011;18306;40.960;14.836;2024-02-23T05:46:39;20.52;;;12.15;;
31724;SDS011;18306;40.960;14.836;2024-02-23T05:49:07;13.20;;;10.73;;
31724;SDS011;18306;40.960;14.836;2024-02-23T05:51:47;17.60;;;11.70;;
31724;SDS011;18306;40.960;14.836;2024-02-23T05:54:28;14.90;;;12.02;;
31724;SDS011;18306;40.960;14.836;2024-02-23T05:57:02;16.08;;;12.07;;
31724;SDS011;18306;40.960;14.836;2024-02-23T05:59:52;26.83;;;18.45;;
31724;SDS011;18306;40.960;14.836;2024-02-23T06:02:28;18.30;;;11.88;;
31724;SDS011;18306;40.960;14.836;2024-02-23T06:05:02;14.73;;;11.00;;
31724;SDS011;18306;40.960;14.836;2024-02-23T06:07:41;17.63;;;11.70;;
31724;SDS011;18306;40.960;14.836;2024-02-23T06:10:22;19.98;;;12.80;;
31724;SDS011;18306;40.960;14.836;2024-02-23T06:13:00;17.73;;;10.95;;
31724;SDS011;18306;40.960;14.836;2024-02-23T06:15:39;16.38;;;11.57;;
31724;SDS011;18306;40.960;14.836;2024-02-23T06:18:16;15.07;;;10.63;;
31724;SDS011;18306;40.960;14.836;2024-02-23T06:20:50;21.02;;;10.45;;
31724;SDS011;18306;40.960;14.836;2024-02-23T06:23:29;16.00;;;11.30;;
31724;SDS011;18306;40.960;14.836;2024-02-23T06:26:04;16.92;;;10.57;;
31724;SDS011;18306;40.960;14.836;2024-02-23T06:28:35;15.18;;;10.70;;
31724;SDS011;18306;40.960;14.836;2024-02-23T06:31:15;15.32;;;11.45;;
31724;SDS011;18306;40.960;14.836;2024-02-23T06:33:50;21.92;;;10.98;;
31724;SDS011;18306;40.960;14.836;2024-02-23T06:36:31;15.88;;;11.70;;
31724;SDS011;18306;40.960;14.836;2024-02-23T06:39:00;15.35;;;11.57;;
31724;SDS011;18306;40.960;14.836;2024-02-23T06:44:16;14.52;;;11.30;;
31724;SDS011;18306;40.960;14.836;2024-02-23T06:49:26;17.40;;;12.10;;
31724;SDS011;18306;40.960;14.836;2024-02-23T06:52:05;14.88;;;11.20;;
31724;SDS011;18306;40.960;14.836;2024-02-23T06:54:41;20.30;;;11.93;;
31724;SDS011;18306;40.960;14.836;2024-02-23T06:57:18;15.20;;;12.23;;
31724;SDS011;18306;40.960;14.836;2024-02-23T06:59:57;15.52;;;11.32;;
31724;SDS011;18306;40.960;14.836;2024-02-23T07:02:33;15.63;;;11.73;;
31724;SDS011;18306;40.960;14.836;2024-02-23T07:05:11;16.63;;;11.05;;
31724;SDS011;18306;40.960;14.836;2024-02-23T07:07:48;18.13;;;12.10;;
31724;SDS011;18306;40.960;14.836;2024-02-23T07:10:32;18.30;;;11.23;;
31724;SDS011;18306;40.960;14.836;2024-02-23T07:13:00;20.08;;;11.55;;
31724;SDS011;18306;40.960;14.836;2024-02-23T07:15:35;16.05;;;11.15;;
31724;SDS011;18306;40.960;14.836;2024-02-23T07:18:07;23.33;;;12.60;;
31724;SDS011;18306;40.960;14.836;2024-02-23T07:20:45;14.40;;;12.05;;
31724;SDS011;18306;40.960;14.836;2024-02-23T07:23:22;21.35;;;12.30;;
31724;SDS011;18306;40.960;14.836;2024-02-23T07:25:54;16.85;;;12.25;;
31724;SDS011;18306;40.960;14.836;2024-02-23T07:28:24;15.55;;;12.23;;
31724;SDS011;18306;40.960;14.836;2024-02-23T07:30:59;16.55;;;12.23;;
31724;SDS011;18306;40.960;14.836;2024-02-23T07:33:29;16.63;;;13.82;;
31724;SDS011;18306;40.960;14.836;2024-02-23T07:36:13;17.90;;;12.55;;
31724;SDS011;18306;40.960;14.836;2024-02-23T07:38:49;24.60;;;16.73;;
31724;SDS011;18306;40.960;14.836;2024-02-23T07:41:18;33.95;;;23.58;;
31724;SDS011;18306;40.960;14.836;2024-02-23T07:43:52;36.42;;;26.77;;
31724;SDS011;18306;40.960;14.836;2024-02-23T07:46:26;57.72;;;39.58;;
31724;SDS011;18306;40.960;14.836;2024-02-23T07:49:02;42.30;;;26.85;;
31724;SDS011;18306;40.960;14.836;2024-02-23T07:51:35;72.50;;;47.65;;
31724;SDS011;18306;40.960;14.836;2024-02-23T07:54:10;22.13;;;14.93;;
31724;SDS011;18306;40.960;14.836;2024-02-23T07:56:41;24.13;;;14.95;;
31724;SDS011;18306;40.960;14.836;2024-02-23T07:59:23;24.50;;;15.20;;
31724;SDS011;18306;40.960;14.836;2024-02-23T08:01:58;20.60;;;13.82;;
31724;SDS011;18306;40.960;14.836;2024-02-23T08:04:41;23.80;;;15.52;;
31724;SDS011;18306;40.960;14.836;2024-02-23T08:07:13;31.48;;;20.80;;
31724;SDS011;18306;40.960;14.836;2024-02-23T08:09:47;32.05;;;21.35;;
31724;SDS011;18306;40.960;14.836;2024-02-23T08:12:17;22.15;;;13.60;;
31724;SDS011;18306;40.960;14.836;2024-02-23T08:14:52;25.13;;;17.15;;
31724;SDS011;18306;40.960;14.836;2024-02-23T08:17:26;18.55;;;11.38;;
31724;SDS011;18306;40.960;14.836;2024-02-23T08:19:58;32.45;;;25.50;;
31724;SDS011;18306;40.960;14.836;2024-02-23T08:25:40;40.13;;;25.30;;
31724;SDS011;18306;40.960;14.836;2024-02-23T08:28:30;23.73;;;17.33;;
31724;SDS011;18306;40.960;14.836;2024-02-23T08:33:32;18.00;;;12.95;;
31724;SDS011;18306;40.960;14.836;2024-02-23T08:35:59;20.35;;;14.63;;
31724;SDS011;18306;40.960;14.836;2024-02-23T08:38:27;18.23;;;13.30;;
31724;SDS011;18306;40.960;14.836;2024-02-23T08:40:54;21.05;;;14.52;;
31724;SDS011;18306;40.960;14.836;2024-02-23T08:43:21;19.13;;;15.27;;
31724;SDS011;18306;40.960;14.836;2024-02-23T08:45:48;21.60;;;15.05;;
31724;SDS011;18306;40.960;14.836;2024-02-23T08:48:15;24.27;;;13.48;;
31724;SDS011;18306;40.960;14.836;2024-02-23T08:50:42;17.30;;;13.82;;
31724;SDS011;18306;40.960;14.836;2024-02-23T08:53:12;17.63;;;13.90;;
31724;SDS011;18306;40.960;14.836;2024-02-23T08:55:39;19.58;;;13.50;;
31724;SDS011;18306;40.960;14.836;2024-02-23T08:58:06;17.48;;;12.90;;
31724;SDS011;18306;40.960;14.836;2024-02-23T09:00:40;18.27;;;14.75;;
31724;SDS011;18306;40.960;14.836;2024-02-23T09:03:07;17.98;;;14.88;;
31724;SDS011;18306;40.960;14.836;2024-02-23T09:05:34;24.08;;;19.33;;
31724;SDS011;18306;40.960;14.836;2024-02-23T09:08:01;18.40;;;14.95;;
31724;SDS011;18306;40.960;14.836;2024-02-23T09:10:28;17.63;;;15.05;;
31724;SDS011;18306;40.960;14.836;2024-02-23T09:12:55;19.20;;;14.40;;
31724;SDS011;18306;40.960;14.836;2024-02-23T09:15:23;17.05;;;13.68;;
31724;SDS011;18306;40.960;14.836;2024-02-23T09:17:50;15.73;;;12.30;;
31724;SDS011;18306;40.960;14.836;2024-02-23T09:20:17;21.08;;;12.10;;
31724;SDS011;18306;40.960;14.836;2024-02-23T09:22:44;17.90;;;11.25;;
31724;SDS011;18306;40.960;14.836;2024-02-23T09:25:12;20.10;;;11.27;;
31724;SDS011;18306;40.960;14.836;2024-02-23T09:27:40;17.70;;;10.90;;
31724;SDS011;18306;40.960;14.836;2024-02-23T09:30:12;21.80;;;12.70;;
31724;SDS011;18306;40.960;14.836;2024-02-23T09:32:40;17.77;;;12.55;;
31724;SDS011;18306;40.960;14.836;2024-02-23T09:35:08;19.92;;;14.70;;
31724;SDS011;18306;40.960;14.836;2024-02-23T09:37:37;15.48;;;12.27;;
31724;SDS011;18306;40.960;14.836;2024-02-23T09:40:04;17.27;;;12.30;;
31724;SDS011;18306;40.960;14.836;2024-02-23T09:42:33;19.27;;;12.00;;
31724;SDS011;18306;40.960;14.836;2024-02-23T09:45:01;25.65;;;17.80;;
31724;SDS011;18306;40.960;14.836;2024-02-23T09:47:30;19.60;;;13.50;;
31724;SDS011;18306;40.960;14.836;2024-02-23T09:49:59;18.52;;;11.05;;
31724;SDS011;18306;40.960;14.836;2024-02-23T09:52:31;18.23;;;12.90;;
31724;SDS011;18306;40.960;14.836;2024-02-23T09:54:59;17.38;;;12.00;;
31724;SDS011;18306;40.960;14.836;2024-02-23T09:57:26;20.38;;;10.82;;
31724;SDS011;18306;40.960;14.836;2024-02-23T09:59:55;22.77;;;11.75;;
31724;SDS011;18306;40.960;14.836;2024-02-23T10:02:23;17.67;;;11.40;;
31724;SDS011;18306;40.960;14.836;2024-02-23T10:04:51;17.75;;;12.18;;
31724;SDS011;18306;40.960;14.836;2024-02-23T10:07:22;17.85;;;11.45;;
31724;SDS011;18306;40.960;14.836;2024-02-23T10:09:52;16.17;;;11.20;;
31724;SDS011;18306;40.960;14.836;2024-02-23T10:12:21;11.65;;;9.60;;
31724;SDS011;18306;40.960;14.836;2024-02-23T10:14:49;15.05;;;9.30;;
31724;SDS011;18306;40.960;14.836;2024-02-23T10:17:16;15.32;;;11.00;;
31724;SDS011;18306;40.960;14.836;2024-02-23T10:19:44;16.67;;;9.73;;
31724;SDS011;18306;40.960;14.836;2024-02-23T10:22:11;18.73;;;10.10;;
31724;SDS011;18306;40.960;14.836;2024-02-23T10:24:38;22.05;;;9.23;;
31724;SDS011;18306;40.960;14.836;2024-02-23T10:27:06;22.65;;;10.00;;
31724;SDS011;18306;40.960;14.836;2024-02-23T10:29:32;15.60;;;9.57;;
31724;SDS011;18306;40.960;14.836;2024-02-23T10:32:07;23.77;;;8.93;;
31724;SDS011;18306;40.960;14.836;2024-02-23T10:34:45;14.90;;;8.82;;
31724;SDS011;18306;40.960;14.836;2024-02-23T10:37:17;21.30;;;8.90;;
31724;SDS011;18306;40.960;14.836;2024-02-23T10:39:44;16.60;;;9.02;;
31724;SDS011;18306;40.960;14.836;2024-02-23T10:42:13;17.60;;;8.70;;
31724;SDS011;18306;40.960;14.836;2024-02-23T10:44:50;18.42;;;9.70;;
31724;SDS011;18306;40.960;14.836;2024-02-23T10:47:19;13.77;;;9.93;;
31724;SDS011;18306;40.960;14.836;2024-02-23T10:49:48;19.98;;;9.75;;
31724;SDS011;18306;40.960;14.836;2024-02-23T10:52:15;13.30;;;8.13;;
31724;SDS011;18306;40.960;14.836;2024-02-23T10:54:45;15.30;;;8.63;;
31724;SDS011;18306;40.960;14.836;2024-02-23T10:57:13;19.35;;;8.27;;
31724;SDS011;18306;40.960;14.836;2024-02-23T10:59:41;11.90;;;7.82;;
31724;SDS011;18306;40.960;14.836;2024-02-23T11:02:09;10.82;;;7.40;;
31724;SDS011;18306;40.960;14.836;2024-02-23T11:04:37;10.98;;;7.65;;
31724;SDS011;18306;40.960;14.836;2024-02-23T11:07:12;15.02;;;7.57;;
31724;SDS011;18306;40.960;14.836;2024-02-23T11:09:40;17.10;;;7.28;;
31724;SDS011;18306;40.960;14.836;2024-02-23T11:12:10;11.73;;;7.72;;
31724;SDS011;18306;40.960;14.836;2024-02-23T11:14:37;12.50;;;8.30;;
31724;SDS011;18306;40.960;14.836;2024-02-23T11:17:05;15.32;;;7.65;;
31724;SDS011;18306;40.960;14.836;2024-02-23T11:19:35;13.38;;;7.63;;
31724;SDS011;18306;40.960;14.836;2024-02-23T11:22:09;12.38;;;7.78;;
31724;SDS011;18306;40.960;14.836;2024-02-23T11:24:41;14.90;;;11.20;;
31724;SDS011;18306;40.960;14.836;2024-02-23T11:27:16;13.48;;;9.73;;
31724;SDS011;18306;40.960;14.836;2024-02-23T11:29:47;13.23;;;9.32;;
31724;SDS011;18306;40.960;14.836;2024-02-23T11:32:34;23.33;;;11.98;;
31724;SDS011;18306;40.960;14.836;2024-02-23T11:35:08;17.70;;;11.57;;
31724;SDS011;18306;40.960;14.836;2024-02-23T11:40:26;25.15;;;13.55;;
31724;SDS011;18306;40.960;14.836;2024-02-23T11:42:54;10.77;;;7.57;;
31724;SDS011;18306;40.960;14.836;2024-02-23T11:45:22;12.20;;;8.13;;
31724;SDS011;18306;40.960;14.836;2024-02-23T11:47:51;13.90;;;8.80;;
31724;SDS011;18306;40.960;14.836;2024-02-23T11:50:20;11.82;;;7.53;;
31724;SDS011;18306;40.960;14.836;2024-02-23T11:52:48;14.68;;;8.18;;
31724;SDS011;18306;40.960;14.836;2024-02-23T11:55:21;14.00;;;7.38;;
31724;SDS011;18306;40.960;14.836;2024-02-23T11:57:52;18.73;;;8.35;;
31724;SDS011;18306;40.960;14.836;2024-02-23T12:00:19;13.02;;;7.53;;
31724;SDS011;18306;40.960;14.836;2024-02-23T12:02:46;13.80;;;7.32;;
31724;SDS011;18306;40.960;14.836;2024-02-23T12:05:16;16.30;;;8.35;;
31724;SDS011;18306;40.960;14.836;2024-02-23T12:07:55;13.52;;;7.50;;
31724;SDS011;18306;40.960;14.836;2024-02-23T12:10:23;13.02;;;7.80;;
31724;SDS011;18306;40.960;14.836;2024-02-23T12:12:53;12.55;;;7.63;;
31724;SDS011;18306;40.960;14.836;2024-02-23T12:15:20;12.55;;;7.70;;
31724;SDS011;18306;40.960;14.836;2024-02-23T12:17:51;12.65;;;7.85;;
31724;SDS011;18306;40.960;14.836;2024-02-23T12:20:18;9.02;;;6.53;;
31724;SDS011;18306;40.960;14.836;2024-02-23T12:22:47;55.33;;;35.15;;
31724;SDS011;18306;40.960;14.836;2024-02-23T12:25:14;22.30;;;11.77;;
31724;SDS011;18306;40.960;14.836;2024-02-23T12:27:42;24.98;;;13.80;;
31724;SDS011;18306;40.960;14.836;2024-02-23T12:30:14;23.33;;;14.52;;
31724;SDS011;18306;40.960;14.836;2024-02-23T12:32:42;21.58;;;12.75;;
31724;SDS011;18306;40.960;14.836;2024-02-23T12:35:12;22.23;;;13.25;;
31724;SDS011;18306;40.960;14.836;2024-02-23T12:37:42;27.00;;;19.05;;
31724;SDS011;18306;40.960;14.836;2024-02-23T12:40:11;15.98;;;10.90;;
31724;SDS011;18306;40.960;14.836;2024-02-23T12:42:38;23.17;;;12.70;;
31724;SDS011;18306;40.960;14.836;2024-02-23T12:45:06;18.60;;;10.80;;
31724;SDS011;18306;40.960;14.836;2024-02-23T12:47:33;13.80;;;10.10;;
31724;SDS011;18306;40.960;14.836;2024-02-23T12:50:05;22.10;;;13.45;;
31724;SDS011;18306;40.960;14.836;2024-02-23T12:52:34;15.40;;;8.48;;
31724;SDS011;18306;40.960;14.836;2024-02-23T12:55:01;16.00;;;8.10;;
31724;SDS011;18306;40.960;14.836;2024-02-23T12:57:28;16.23;;;8.80;;
31724;SDS011;18306;40.960;14.836;2024-02-23T12:59:55;16.80;;;8.82;;
31724;SDS011;18306;40.960;14.836;2024-02-23T13:02:22;16.23;;;7.93;;
31724;SDS011;18306;40.960;14.836;2024-02-23T13:04:49;11.60;;;7.53;;
31724;SDS011;18306;40.960;14.836;2024-02-23T13:07:16;12.68;;;7.13;;
31724;SDS011;18306;40.960;14.836;2024-02-23T13:09:44;11.20;;;6.85;;
31724;SDS011;18306;40.960;14.836;2024-02-23T13:12:11;11.82;;;7.55;;
31724;SDS011;18306;40.960;14.836;2024-02-23T13:14:38;15.30;;;7.57;;
31724;SDS011;18306;40.960;14.836;2024-02-23T13:17:07;11.18;;;7.38;;
31724;SDS011;18306;40.960;14.836;2024-02-23T13:19:34;13.43;;;7.93;;
31724;SDS011;18306;40.960;14.836;2024-02-23T13:22:00;11.68;;;6.78;;
31724;SDS011;18306;40.960;14.836;2024-02-23T13:24:27;12.93;;;7.78;;
31724;SDS011;18306;40.960;14.836;2024-02-23T13:26:55;12.88;;;6.90;;
31724;SDS011;18306;40.960;14.836;2024-02-23T13:29:22;14.38;;;7.88;;
31724;SDS011;18306;40.960;14.836;2024-02-23T13:31:49;14.88;;;9.00;;
31724;SDS011;18306;40.960;14.836;2024-02-23T13:34:16;13.05;;;7.65;;
31724;SDS011;18306;40.960;14.836;2024-02-23T13:36:44;12.23;;;8.85;;
31724;SDS011;18306;40.960;14.836;2024-02-23T13:39:11;19.63;;;10.93;;
31724;SDS011;18306;40.960;14.836;2024-02-23T13:41:39;14.85;;;10.65;;
31724;SDS011;18306;40.960;14.836;2024-02-23T13:44:06;13.45;;;8.55;;
31724;SDS011;18306;40.960;14.836;2024-02-23T13:46:38;21.23;;;11.15;;
31724;SDS011;18306;40.960;14.836;2024-02-23T13:49:06;12.23;;;8.85;;
31724;SDS011;18306;40.960;14.836;2024-02-23T13:51:35;11.23;;;7.63;;
31724;SDS011;18306;40.960;14.836;2024-02-23T13:54:02;14.82;;;8.60;;
31724;SDS011;18306;40.960;14.836;2024-02-23T13:56:30;46.22;;;28.13;;
31724;SDS011;18306;40.960;14.836;2024-02-23T13:58:58;21.13;;;11.77;;
31724;SDS011;18306;40.960;14.836;2024-02-23T14:01:25;15.25;;;11.02;;
31724;SDS011;18306;40.960;14.836;2024-02-23T14:03:52;25.15;;;13.65;;
31724;SDS011;18306;40.960;14.836;2024-02-23T14:06:20;17.15;;;11.30;;
31724;SDS011;18306;40.960;14.836;2024-02-23T14:08:47;20.50;;;10.77;;
31724;SDS011;18306;40.960;14.836;2024-02-23T14:11:14;18.50;;;10.45;;
31724;SDS011;18306;40.960;14.836;2024-02-23T14:13:41;17.55;;;9.88;;
31724;SDS011;18306;40.960;14.836;2024-02-23T14:16:10;14.48;;;8.25;;
31724;SDS011;18306;40.960;14.836;2024-02-23T14:18:40;16.08;;;10.27;;
31724;SDS011;18306;40.960;14.836;2024-02-23T14:21:10;17.92;;;9.20;;
31724;SDS011;18306;40.960;14.836;2024-02-23T14:23:40;16.20;;;8.15;;
31724;SDS011;18306;40.960;14.836;2024-02-23T14:26:09;16.23;;;7.68;;
31724;SDS011;18306;40.960;14.836;2024-02-23T14:28:38;20.08;;;8.52;;
31724;SDS011;18306;40.960;14.836;2024-02-23T14:31:08;16.52;;;7.88;;
31724;SDS011;18306;40.960;14.836;2024-02-23T14:33:35;21.15;;;8.27;;
31724;SDS011;18306;40.960;14.836;2024-02-23T14:36:03;15.75;;;6.95;;
31724;SDS011;18306;40.960;14.836;2024-02-23T14:38:38;16.98;;;7.93;;
31724;SDS011;18306;40.960;14.836;2024-02-23T14:41:07;12.73;;;7.80;;